Time;durP1;ratioP1;P1;durP2;ratioP2;P2;SDS_P1;SDS_P2;PMS_P1;PMS_P2;Temp;Humidity;BMP_temperature;BMP_pressure;BME280_temperature;BME280_humidity;BME280_pressure;Samples;Min_cycle;Max_cycle;Signal;HPM_P1;HPM_P2
2022/03/06 00:00:31;;;;;;;11.35;5.93;;;;;;;2.22;63.73;100409.13;4972054;28;20057;-62
2022/03/06 00:02:56;;;;;;;8.23;5.43;;;;;;;2.22;64.28;100419.63;4971163;28;20041;-62
2022/03/06 00:05:21;;;;;;;18.83;6.45;;;;;;;2.19;65.13;100419.59;4971979;28;20406;-62
2022/03/06 00:07:47;;;;;;;12.35;6.25;;;;;;;2.14;65.29;100418.69;4971771;28;20034;-62
2022/03/06 00:10:12;;;;;;;10.77;5.28;;;;;;;2.11;66.61;100417.81;4970497;28;20050;-62
2022/03/06 00:12:38;;;;;;;14.05;7.10;;;;;;;2.02;65.08;100407.22;4972019;28;20114;-62
2022/03/06 00:15:05;;;;;;;15.93;7.30;;;;;;;2.04;65.34;100414.22;4972006;28;20031;-62
2022/03/06 00:17:30;;;;;;;14.93;7.15;;;;;;;2.03;65.79;100417.72;4971595;28;20101;-62
2022/03/06 00:19:56;;;;;;;14.55;6.90;;;;;;;1.94;66.82;100409.81;4971162;28;20109;-62
2022/03/06 00:22:21;;;;;;;13.63;5.60;;;;;;;1.92;65.35;100416.78;4971658;28;20023;-62
2022/03/06 00:24:46;;;;;;;15.00;7.25;;;;;;;1.94;65.69;100414.16;4971269;28;20037;-62
2022/03/06 00:27:12;;;;;;;14.43;6.35;;;;;;;1.95;67.05;100408.91;4971667;28;20890;-62
2022/03/06 00:29:37;;;;;;;14.50;6.88;;;;;;;1.99;66.86;100415.06;4970142;28;20073;-62
2022/03/06 00:32:04;;;;;;;13.93;6.20;;;;;;;1.87;66.22;100400.13;4971660;28;20019;-62
2022/03/06 00:34:29;;;;;;;16.77;6.95;;;;;;;1.90;66.96;100410.63;4971223;28;20042;-62
2022/03/06 00:36:55;;;;;;;16.15;7.22;;;;;;;1.86;67.38;100406.22;4971476;28;20030;-62
2022/03/06 00:39:20;;;;;;;15.05;7.22;;;;;;;1.88;67.12;100411.50;4970594;28;20015;-62
2022/03/06 00:41:47;;;;;;;12.93;7.13;;;;;;;1.87;67.41;100410.59;4971265;28;20051;-62
2022/03/06 00:44:12;;;;;;;14.32;7.55;;;;;;;1.90;66.84;100414.97;4971383;28;20532;-62
2022/03/06 00:46:38;;;;;;;15.57;6.78;;;;;;;1.90;65.84;100409.75;4971500;28;20118;-62
2022/03/06 00:49:03;;;;;;;13.90;7.05;;;;;;;1.90;65.93;100408.00;4969397;28;20370;-62
2022/03/06 00:51:30;;;;;;;18.48;6.28;;;;;;;1.92;66.26;100414.16;4971122;28;20019;-62
2022/03/06 00:53:55;;;;;;;12.30;6.25;;;;;;;1.90;65.65;100413.25;4970528;28;20035;-62
2022/03/06 00:56:21;;;;;;;16.90;6.43;;;;;;;1.90;65.85;100405.38;4970985;28;20497;-62
2022/03/06 00:58:46;;;;;;;15.38;6.85;;;;;;;1.87;66.38;100407.97;4968858;28;20030;-62
2022/03/06 01:01:11;;;;;;;16.00;7.55;;;;;;;1.90;65.22;100410.63;4970299;28;20078;-62
2022/03/06 01:03:38;;;;;;;12.73;6.53;;;;;;;1.88;65.29;100414.13;4970437;28;20034;-62
2022/03/06 01:06:03;;;;;;;10.80;6.18;;;;;;;1.83;65.86;100407.97;4970743;28;20050;-62
2022/03/06 01:08:28;;;;;;;15.70;7.05;;;;;;;1.82;66.01;100406.19;4969429;28;20479;-62
2022/03/06 01:10:55;;;;;;;13.25;6.55;;;;;;;1.79;65.99;100421.88;4969747;28;20027;-62
2022/03/06 01:13:21;;;;;;;10.43;5.68;;;;;;;1.77;65.45;100421.88;4970698;28;20042;-62
2022/03/06 01:15:47;;;;;;;11.77;7.10;;;;;;;1.77;66.10;100414.00;4970513;28;20418;-62
2022/03/06 01:18:13;;;;;;;12.98;6.88;;;;;;;1.71;67.57;100424.47;4969908;28;20042;-62
2022/03/06 01:20:39;;;;;;;14.88;7.57;;;;;;;1.60;68.39;100420.84;4970688;28;20033;-62
2022/03/06 01:23:06;;;;;;;13.20;6.60;;;;;;;1.62;68.12;100426.09;4970350;28;20052;-62
2022/03/06 01:25:32;;;;;;;14.70;6.70;;;;;;;1.62;68.29;100423.47;4970081;28;20485;-62
2022/03/06 01:27:58;;;;;;;15.27;7.90;;;;;;;1.62;68.39;100426.09;4970682;28;20035;-62
2022/03/06 01:30:25;;;;;;;14.73;6.72;;;;;;;1.59;68.83;100421.72;4969799;28;20050;-62
2022/03/06 01:32:51;;;;;;;15.85;7.05;;;;;;;1.52;69.77;100424.25;4970415;28;20022;-62
2022/03/06 01:35:18;;;;;;;15.88;8.00;;;;;;;1.52;69.50;100422.50;4970298;28;20027;-62
2022/03/06 01:37:43;;;;;;;12.23;7.57;;;;;;;1.55;69.30;100427.78;4969616;28;20027;-62
2022/03/06 01:40:10;;;;;;;16.58;7.00;;;;;;;1.54;69.75;100431.28;4969546;28;20868;-62
2022/03/06 01:42:42;;;;;;;14.75;6.57;;;;;;;1.50;70.61;100429.47;4970496;28;20501;-62
2022/03/06 01:45:08;;;;;;;12.32;6.63;;;;;;;1.49;70.76;100422.47;4970087;28;20026;-61
2022/03/06 01:47:42;;;;;;;18.75;7.30;;;;;;;1.47;70.34;100423.34;4970338;28;20034;-62
2022/03/06 01:50:18;;;;;;;16.35;7.47;;;;;;;1.47;69.92;100426.81;4970107;28;20023;-62
2022/03/06 01:52:45;;;;;;;14.38;6.53;;;;;;;1.48;69.44;100428.59;4970221;28;20031;-62
2022/03/06 01:55:11;;;;;;;14.48;7.25;;;;;;;1.47;69.04;100429.44;4970324;28;20027;-62
2022/03/06 01:57:39;;;;;;;15.25;7.88;;;;;;;1.49;70.13;100422.47;4970771;28;20035;-62
2022/03/06 02:00:18;;;;;;;15.65;7.70;;;;;;;1.44;69.19;100424.19;4970331;28;20389;-62
2022/03/06 02:02:45;;;;;;;13.00;6.70;;;;;;;1.44;69.15;100428.53;4984679;28;20486;-62
2022/03/06 02:05:11;;;;;;;18.77;6.25;;;;;;;1.38;69.92;100418.00;4969374;28;20039;-62
2022/03/06 02:07:37;;;;;;;15.80;7.07;;;;;;;1.36;70.42;100420.59;4970540;28;20034;-62
2022/03/06 02:10:05;;;;;;;15.32;6.97;;;;;;;1.35;70.40;100416.25;4951225;29;20118;-62
2022/03/06 02:12:32;;;;;;;14.48;6.88;;;;;;;1.33;70.58;100417.94;4951015;29;20380;-61
2022/03/06 02:14:59;;;;;;;16.27;7.30;;;;;;;1.29;70.93;100424.00;4951250;29;20028;-61
2022/03/06 02:17:26;;;;;;;16.92;7.32;;;;;;;1.18;71.08;100409.91;4955273;28;20390;-62
2022/03/06 02:20:07;;;;;;;14.85;6.82;;;;;;;1.25;71.40;100420.47;4970061;28;20044;-62
2022/03/06 02:22:36;;;;;;;13.15;6.88;;;;;;;1.25;71.11;100428.34;4970249;28;20088;-61
2022/03/06 02:25:07;;;;;;;18.10;7.65;;;;;;;1.17;71.13;100429.13;4971715;28;20074;-61
2022/03/06 02:27:32;;;;;;;17.13;7.00;;;;;;;1.15;71.91;100425.63;4974072;28;20030;-61
2022/03/06 02:29:58;;;;;;;13.45;7.93;;;;;;;1.13;72.38;100424.72;4973175;28;20102;-62
2022/03/06 02:32:23;;;;;;;12.77;6.22;;;;;;;1.03;73.01;100405.41;4974051;28;20023;-62
2022/03/06 02:34:51;;;;;;;16.55;8.02;;;;;;;1.22;72.16;100425.69;4974150;28;20034;-62
2022/03/06 02:37:19;;;;;;;17.98;7.75;;;;;;;1.33;71.53;100415.34;4973332;28;20478;-62
2022/03/06 02:39:45;;;;;;;15.05;7.53;;;;;;;1.28;72.07;100414.41;4973696;28;20114;-61
2022/03/06 02:42:23;;;;;;;16.92;7.43;;;;;;;1.27;72.33;100415.25;4974003;28;20041;-61
2022/03/06 02:44:49;;;;;;;13.40;7.45;;;;;;;1.19;72.93;100427.38;4974211;28;20031;-61
2022/03/06 02:47:14;;;;;;;14.90;7.40;;;;;;;1.09;72.79;100415.94;4973513;28;20038;-61
2022/03/06 02:49:40;;;;;;;13.48;6.78;;;;;;;1.06;74.80;100417.63;4973597;28;20429;-62
2022/03/06 02:52:08;;;;;;;15.10;7.50;;;;;;;1.01;73.65;100422.81;4973993;28;20057;-62
2022/03/06 02:54:33;;;;;;;13.05;7.35;;;;;;;0.91;74.61;100396.50;4973594;28;20097;-62
2022/03/06 02:56:59;;;;;;;13.60;7.47;;;;;;;0.96;74.08;100426.25;4973038;28;20031;-61
2022/03/06 02:59:25;;;;;;;14.65;6.63;;;;;;;0.95;74.65;100421.88;4972035;28;20022;-62
2022/03/06 03:01:50;;;;;;;17.90;7.45;;;;;;;0.94;74.67;100420.13;4973476;28;20039;-62
2022/03/06 03:04:15;;;;;;;15.43;7.22;;;;;;;0.97;74.12;100420.16;4973537;28;20101;-62
2022/03/06 03:06:41;;;;;;;14.68;6.85;;;;;;;0.92;74.79;100416.59;4973708;28;20085;-62
2022/03/06 03:09:07;;;;;;;15.00;7.10;;;;;;;0.87;74.09;100418.28;4972330;28;20046;-62
2022/03/06 03:11:34;;;;;;;16.92;7.38;;;;;;;0.89;74.12;100419.19;4956139;28;20447;-62
2022/03/06 03:14:00;;;;;;;16.27;7.40;;;;;;;0.88;74.43;100425.28;4959412;28;20521;-62
2022/03/06 03:16:26;;;;;;;14.40;7.30;;;;;;;0.82;74.49;100422.59;4973344;28;20389;-62
2022/03/06 03:18:54;;;;;;;16.25;9.02;;;;;;;0.73;74.41;100431.19;4972718;28;20023;-62
2022/03/06 03:21:20;;;;;;;14.85;7.20;;;;;;;0.71;74.70;100419.81;4973402;28;20098;-62
2022/03/06 03:23:45;;;;;;;16.23;7.45;;;;;;;0.70;75.17;100423.31;4973536;28;20030;-62
2022/03/06 03:26:11;;;;;;;12.98;6.70;;;;;;;0.63;74.66;100428.41;4972949;28;20022;-62
2022/03/06 03:28:37;;;;;;;12.60;6.53;;;;;;;0.61;76.10;100430.16;4972623;28;20073;-62
2022/03/06 03:31:02;;;;;;;18.05;7.70;;;;;;;0.62;75.66;100424.94;4972782;28;20031;-62
2022/03/06 03:33:28;;;;;;;16.27;7.13;;;;;;;0.65;75.29;100421.47;4973165;28;20049;-62
2022/03/06 03:35:53;;;;;;;15.95;8.10;;;;;;;0.65;75.89;100426.72;4972886;28;20470;-62
2022/03/06 03:38:18;;;;;;;15.30;7.90;;;;;;;0.63;75.52;100433.66;4972819;28;20030;-62
2022/03/06 03:40:44;;;;;;;17.17;8.50;;;;;;;0.64;76.29;100424.97;4972038;28;20034;-62
2022/03/06 03:43:09;;;;;;;12.20;6.50;;;;;;;0.61;76.41;100424.94;4970979;28;20030;-62
2022/03/06 03:45:35;;;;;;;19.63;6.53;;;;;;;0.62;76.53;100437.16;4972267;28;20035;-62
2022/03/06 03:48:01;;;;;;;14.85;6.85;;;;;;;0.60;76.32;100446.69;4972592;28;20046;-62
2022/03/06 03:50:26;;;;;;;17.77;7.30;;;;;;;0.60;75.75;100433.63;4972497;28;20031;-62
2022/03/06 03:52:51;;;;;;;13.93;6.95;;;;;;;0.57;75.17;100438.81;4972848;28;20031;-62
2022/03/06 03:55:18;;;;;;;19.52;7.53;;;;;;;0.57;75.27;100441.44;4972630;28;20027;-62
2022/03/06 03:57:44;;;;;;;16.85;8.23;;;;;;;0.48;74.85;100443.94;4972259;28;20031;-62
2022/03/06 04:00:10;;;;;;;16.45;7.63;;;;;;;0.42;75.16;100444.72;4972807;28;20045;-62
2022/03/06 04:02:35;;;;;;;15.05;7.72;;;;;;;0.48;75.71;100446.56;4972747;28;20039;-61
2022/03/06 04:05:01;;;;;;;12.98;7.38;;;;;;;0.54;74.91;100449.25;4972241;28;20061;-62
2022/03/06 04:07:27;;;;;;;14.68;7.05;;;;;;;0.53;74.53;100452.72;4972642;28;20248;-62
2022/03/06 04:09:52;;;;;;;20.55;7.18;;;;;;;0.38;75.48;100457.75;4971501;28;20029;-62
2022/03/06 04:12:17;;;;;;;15.25;7.30;;;;;;;0.50;74.78;100457.91;4972509;28;20023;-62
2022/03/06 04:14:43;;;;;;;17.58;7.22;;;;;;;0.47;74.83;100456.13;4972379;28;20023;-62
2022/03/06 04:17:09;;;;;;;16.52;7.15;;;;;;;0.45;74.38;100457.84;4972424;28;20030;-62
2022/03/06 04:19:34;;;;;;;14.02;7.70;;;;;;;0.46;74.60;100469.19;4971873;28;20752;-62
2022/03/06 04:22:00;;;;;;;14.13;7.18;;;;;;;0.34;75.14;100471.63;4972268;28;20027;-62
2022/03/06 04:24:26;;;;;;;14.85;7.28;;;;;;;0.45;75.14;100470.91;4971704;28;20089;-62
2022/03/06 04:26:52;;;;;;;14.63;7.05;;;;;;;0.40;75.18;100471.69;4972271;28;20030;-62
2022/03/06 04:29:17;;;;;;;16.73;7.13;;;;;;;0.38;74.29;100473.44;4970450;28;20030;-62
2022/03/06 04:31:42;;;;;;;13.35;7.20;;;;;;;0.28;74.59;100482.00;4972201;28;20049;-62
2022/03/06 04:34:08;;;;;;;14.25;7.40;;;;;;;0.29;74.78;100483.75;4972199;28;20034;-62
2022/03/06 04:36:33;;;;;;;15.65;8.30;;;;;;;0.32;74.88;100489.00;4971669;28;20094;-62
2022/03/06 04:38:59;;;;;;;15.68;7.65;;;;;;;0.38;75.98;100487.38;4971081;28;20031;-62
2022/03/06 04:41:25;;;;;;;11.45;7.50;;;;;;;0.40;75.76;100490.00;4971982;28;20026;-62
2022/03/06 04:43:53;;;;;;;15.82;6.50;;;;;;;0.40;75.83;100488.28;4954380;28;20441;-62
2022/03/06 04:46:18;;;;;;;14.85;7.47;;;;;;;0.51;75.63;100484.09;4971713;28;20046;-62
2022/03/06 04:48:44;;;;;;;16.55;7.15;;;;;;;0.49;76.02;100487.56;4970883;28;20085;-62
2022/03/06 04:51:10;;;;;;;17.98;8.00;;;;;;;0.51;75.98;100488.47;4971693;28;20029;-62
2022/03/06 04:53:36;;;;;;;20.25;9.20;;;;;;;0.56;76.50;100486.78;4971268;28;20027;-62
2022/03/06 04:56:03;;;;;;;16.00;7.20;;;;;;;0.60;75.59;100492.09;4971200;28;20030;-62
2022/03/06 04:58:29;;;;;;;17.35;7.53;;;;;;;0.65;74.90;100484.28;4971415;28;20038;-62
2022/03/06 05:00:54;;;;;;;23.10;8.57;;;;;;;0.64;74.37;100477.31;4970391;28;20426;-62
2022/03/06 05:03:20;;;;;;;14.93;7.65;;;;;;;0.62;73.69;100487.75;4969709;28;20038;-62
2022/03/06 05:05:46;;;;;;;13.95;6.93;;;;;;;0.74;72.91;100498.38;4969874;28;20051;-62
2022/03/06 05:08:11;;;;;;;20.70;7.78;;;;;;;0.75;72.48;100494.03;4971181;28;20110;-62
2022/03/06 05:10:37;;;;;;;14.38;7.13;;;;;;;0.80;71.91;100490.63;4970847;28;20019;-62
2022/03/06 05:13:03;;;;;;;18.02;7.15;;;;;;;0.75;71.68;100486.19;4969973;28;20039;-62
2022/03/06 05:15:28;;;;;;;16.15;8.40;;;;;;;0.79;71.31;100494.09;4970902;28;20058;-62
2022/03/06 05:17:54;;;;;;;12.68;6.88;;;;;;;0.90;71.35;100496.88;4970831;28;20588;-62
2022/03/06 05:20:20;;;;;;;16.90;8.02;;;;;;;0.91;70.75;100496.00;4971343;28;20138;-62
2022/03/06 05:22:45;;;;;;;15.73;8.07;;;;;;;0.92;70.45;100501.25;4970629;28;20022;-62
2022/03/06 05:25:11;;;;;;;18.42;7.90;;;;;;;0.91;70.97;100503.84;4971077;28;20034;-62
2022/03/06 05:27:38;;;;;;;18.40;8.15;;;;;;;0.87;71.34;100502.94;4971223;28;20034;-62
2022/03/06 05:30:09;;;;;;;14.75;7.35;;;;;;;0.90;71.34;100502.09;4970999;28;20033;-62
2022/03/06 05:32:35;;;;;;;17.05;7.20;;;;;;;0.91;71.55;100503.84;4971179;28;20038;-62
2022/03/06 05:35:01;;;;;;;15.38;7.55;;;;;;;0.88;71.00;100504.72;4970502;28;20382;-62
2022/03/06 05:37:26;;;;;;;17.08;7.97;;;;;;;0.87;72.29;100512.53;4970656;28;20023;-62
2022/03/06 05:39:52;;;;;;;16.13;7.32;;;;;;;0.87;72.21;100504.69;4970793;28;20541;-62
2022/03/06 05:42:19;;;;;;;21.15;7.93;;;;;;;0.81;71.57;100507.19;4970564;28;20077;-62
2022/03/06 05:44:45;;;;;;;14.95;7.53;;;;;;;0.76;72.26;100509.75;4970410;28;20027;-62
2022/03/06 05:47:10;;;;;;;15.15;8.20;;;;;;;0.76;72.40;100503.63;4970970;28;20031;-62
2022/03/06 05:49:36;;;;;;;17.90;7.10;;;;;;;0.76;72.23;100503.63;4970225;28;20038;-63
2022/03/06 05:52:02;;;;;;;15.60;7.45;;;;;;;0.71;72.74;100514.06;4970484;28;20023;-62
2022/03/06 05:54:29;;;;;;;14.77;6.80;;;;;;;0.67;73.19;100516.59;4970935;28;20023;-62
2022/03/06 05:56:54;;;;;;;17.23;7.43;;;;;;;0.75;73.63;100517.59;4970717;28;20544;-62
2022/03/06 05:59:20;;;;;;;16.67;7.57;;;;;;;0.78;73.00;100518.53;4952221;28;20026;-62
2022/03/06 06:01:45;;;;;;;17.40;7.80;;;;;;;0.79;73.84;100519.41;4970454;28;20129;-62
2022/03/06 06:04:12;;;;;;;14.40;7.18;;;;;;;0.76;73.57;100524.56;4970759;28;20029;-62
2022/03/06 06:06:38;;;;;;;14.20;6.90;;;;;;;0.74;74.19;100518.47;4970274;28;20046;-62
2022/03/06 06:09:04;;;;;;;15.55;8.10;;;;;;;0.66;74.30;100515.72;4969135;28;20438;-62
2022/03/06 06:11:29;;;;;;;21.35;8.35;;;;;;;0.63;74.35;100528.75;4969130;28;20061;-62
2022/03/06 06:13:55;;;;;;;19.13;7.68;;;;;;;0.71;73.89;100523.66;4970438;28;20037;-61
2022/03/06 06:16:20;;;;;;;13.25;7.20;;;;;;;0.64;75.23;100521.81;4970920;28;20485;-61
2022/03/06 06:18:46;;;;;;;16.13;7.68;;;;;;;0.71;74.96;100528.91;4970258;28;20031;-61
2022/03/06 06:21:11;;;;;;;17.05;7.95;;;;;;;0.79;74.90;100527.28;4969972;28;20077;-62
2022/03/06 06:23:37;;;;;;;18.73;8.60;;;;;;;0.84;74.45;100529.06;4970589;28;20092;-62
2022/03/06 06:26:03;;;;;;;21.00;8.13;;;;;;;0.98;73.78;100535.41;4970676;28;20035;-62
2022/03/06 06:28:28;;;;;;;17.02;6.90;;;;;;;1.20;74.17;100536.56;4970358;28;20029;-62
2022/03/06 06:30:53;;;;;;;16.52;8.13;;;;;;;1.52;72.27;100532.59;4970041;28;20034;-62
2022/03/06 06:33:19;;;;;;;14.48;7.95;;;;;;;1.72;70.72;100533.69;4970474;28;20399;-62
2022/03/06 06:35:44;;;;;;;14.20;7.13;;;;;;;1.71;70.00;100534.56;4970318;28;20031;-62
2022/03/06 06:38:10;;;;;;;18.58;8.35;;;;;;;1.68;69.77;100528.41;4970444;28;20447;-62
2022/03/06 06:40:35;;;;;;;15.27;8.43;;;;;;;1.60;69.28;100533.56;4970192;28;20102;-62
2022/03/06 06:43:01;;;;;;;18.30;9.27;;;;;;;1.53;69.93;100541.34;4970526;28;20050;-62
2022/03/06 06:45:26;;;;;;;17.95;8.68;;;;;;;1.59;69.95;100539.69;4970327;28;20077;-62
2022/03/06 06:47:52;;;;;;;16.17;8.00;;;;;;;1.76;70.47;100537.25;4969891;28;20390;-62
2022/03/06 06:50:17;;;;;;;17.88;8.07;;;;;;;2.21;72.05;100533.31;4969586;28;20034;-62
2022/03/06 06:52:43;;;;;;;18.58;7.95;;;;;;;3.89;67.01;100529.88;4970090;28;20105;-62
2022/03/06 06:55:08;;;;;;;16.60;8.00;;;;;;;5.92;58.39;100533.97;4970678;28;20034;-62
2022/03/06 06:57:34;;;;;;;16.25;8.27;;;;;;;7.07;52.83;100526.88;4969607;28;20030;-62
2022/03/06 07:00:02;;;;;;;15.07;7.35;;;;;;;7.14;50.61;100531.22;4969348;28;20088;-62
2022/03/06 07:02:27;;;;;;;18.08;7.85;;;;;;;6.52;50.54;100538.84;4970260;28;20391;-62
2022/03/06 07:04:53;;;;;;;17.45;7.38;;;;;;;5.74;51.43;100534.94;4969274;28;20038;-62
2022/03/06 07:07:18;;;;;;;13.45;7.00;;;;;;;5.05;53.65;100529.91;4968483;28;20046;-62
2022/03/06 07:09:44;;;;;;;14.57;7.07;;;;;;;4.71;56.26;100549.28;4968858;28;20139;-62
2022/03/06 07:12:09;;;;;;;13.70;6.90;;;;;;;6.30;55.22;100547.81;4973067;28;20390;-62
2022/03/06 07:14:35;;;;;;;18.33;7.45;;;;;;;8.44;49.12;100540.97;4986893;28;20056;-62
2022/03/06 07:17:01;;;;;;;15.77;7.30;;;;;;;10.09;45.47;100544.03;4973428;28;20363;-62
2022/03/06 07:19:26;;;;;;;16.60;7.97;;;;;;;11.43;41.96;100540.66;4972256;28;20027;-62
2022/03/06 07:21:51;;;;;;;15.38;7.90;;;;;;;12.54;40.15;100541.72;4971594;28;20429;-62
2022/03/06 07:24:17;;;;;;;19.23;7.68;;;;;;;13.20;37.30;100551.06;4972976;28;20027;-62
2022/03/06 07:26:42;;;;;;;18.60;7.00;;;;;;;13.63;36.59;100549.53;4972788;28;20580;-62
2022/03/06 07:29:08;;;;;;;16.45;7.13;;;;;;;14.06;35.85;100552.34;4972713;28;20093;-62
2022/03/06 07:31:34;;;;;;;17.17;6.88;;;;;;;14.60;34.83;100558.25;4973389;28;20105;-62
2022/03/06 07:34:00;;;;;;;16.83;7.38;;;;;;;14.99;34.30;100556.59;4973002;28;20106;-60
2022/03/06 07:36:25;;;;;;;14.50;6.45;;;;;;;15.26;33.87;100555.44;4972272;28;20093;-60
2022/03/06 07:38:51;;;;;;;27.05;8.23;;;;;;;15.87;32.52;100553.63;4972050;28;20027;-60
2022/03/06 07:41:17;;;;;;;15.40;6.43;;;;;;;16.27;31.61;100553.53;4973278;28;20031;-60
2022/03/06 07:43:43;;;;;;;16.02;6.82;;;;;;;16.34;31.35;100543.38;4972713;28;20041;-60
2022/03/06 07:46:09;;;;;;;13.40;6.78;;;;;;;16.51;31.29;100562.25;4972960;28;20018;-60
2022/03/06 07:48:34;;;;;;;21.77;9.32;;;;;;;17.08;31.44;100565.63;4972817;28;20035;-60
2022/03/06 07:51:01;;;;;;;17.50;6.85;;;;;;;16.86;30.92;100570.34;4972453;28;20038;-60
2022/03/06 07:53:26;;;;;;;20.88;7.25;;;;;;;16.82;31.35;100560.69;4972526;28;20722;-60
2022/03/06 07:55:52;;;;;;;14.35;7.45;;;;;;;17.06;30.58;100566.66;4971808;28;20031;-60
2022/03/06 07:58:18;;;;;;;13.73;6.25;;;;;;;17.41;30.55;100573.81;4971801;28;20030;-60
2022/03/06 08:00:43;;;;;;;19.85;7.55;;;;;;;17.74;29.89;100566.69;4972203;28;20022;-60
2022/03/06 08:03:09;;;;;;;16.02;6.88;;;;;;;17.75;29.61;100571.13;4972770;28;20022;-60
2022/03/06 08:05:34;;;;;;;17.13;7.95;;;;;;;17.28;30.40;100574.53;4971973;28;20470;-60
2022/03/06 08:08:00;;;;;;;12.65;7.13;;;;;;;17.32;29.98;100571.59;4972873;28;20027;-62
2022/03/06 08:10:26;;;;;;;15.77;6.60;;;;;;;17.06;29.89;100572.94;4972663;28;20453;-61
2022/03/06 08:12:51;;;;;;;13.02;6.82;;;;;;;17.32;30.36;100565.34;4972161;28;20057;-61
2022/03/06 08:15:17;;;;;;;18.67;8.30;;;;;;;17.32;29.39;100568.03;4972249;28;20038;-61
2022/03/06 08:17:42;;;;;;;16.38;7.78;;;;;;;17.39;30.32;100575.72;4972224;28;20027;-61
2022/03/06 08:20:08;;;;;;;14.68;7.25;;;;;;;17.89;29.41;100571.25;4971821;28;20541;-61
2022/03/06 08:22:34;;;;;;;15.43;7.15;;;;;;;17.76;29.45;100569.31;4970066;28;20026;-61
2022/03/06 08:25:01;;;;;;;16.50;7.68;;;;;;;17.30;29.91;100570.78;4971634;28;20117;-61
2022/03/06 08:27:26;;;;;;;16.45;8.32;;;;;;;17.14;30.34;100572.53;4971353;28;20029;-61
2022/03/06 08:29:52;;;;;;;15.60;7.85;;;;;;;17.34;30.58;100569.69;4970529;28;20102;-61
2022/03/06 08:32:17;;;;;;;17.17;7.75;;;;;;;17.00;30.25;100567.00;4971944;28;20035;-61
2022/03/06 08:34:43;;;;;;;14.00;7.47;;;;;;;17.11;30.38;100570.00;4971810;28;20453;-61
2022/03/06 08:37:09;;;;;;;15.25;7.13;;;;;;;16.93;31.40;100576.28;4972570;28;20470;-61
2022/03/06 08:39:34;;;;;;;14.93;7.30;;;;;;;16.98;30.13;100563.50;4954169;28;20035;-61
2022/03/06 08:42:00;;;;;;;13.50;7.57;;;;;;;16.77;30.56;100564.56;4971249;28;20104;-61
2022/03/06 08:44:26;;;;;;;14.75;7.28;;;;;;;16.98;30.75;100566.19;4962922;28;20074;-61
2022/03/06 08:46:51;;;;;;;15.20;7.85;;;;;;;16.88;30.62;100571.16;4971926;28;20031;-61
2022/03/06 08:49:17;;;;;;;17.02;8.38;;;;;;;16.18;30.86;100553.06;4971319;28;20112;-61
2022/03/06 08:51:43;;;;;;;14.55;7.03;;;;;;;16.39;31.04;100573.56;4971180;28;20042;-61
2022/03/06 08:54:08;;;;;;;14.00;7.05;;;;;;;16.04;31.55;100566.28;4970515;28;20023;-61
2022/03/06 08:56:34;;;;;;;15.25;7.53;;;;;;;15.91;32.06;100565.09;4970718;28;20031;-62
2022/03/06 08:58:59;;;;;;;14.85;7.45;;;;;;;15.89;33.20;100556.25;4970977;28;20054;-62
2022/03/06 09:01:25;;;;;;;16.83;7.55;;;;;;;16.02;31.86;100557.41;4971424;28;20110;-62
2022/03/06 09:03:50;;;;;;;15.35;8.35;;;;;;;15.69;33.10;100560.72;4971472;28;20134;-61
2022/03/06 09:06:16;;;;;;;16.67;8.55;;;;;;;15.27;33.17;100567.06;4971092;28;20539;-61
2022/03/06 09:08:42;;;;;;;13.18;7.10;;;;;;;15.56;33.34;100558.63;4970756;28;20390;-62
2022/03/06 09:11:07;;;;;;;16.58;7.43;;;;;;;15.70;32.32;100551.72;4971076;28;20034;-61
2022/03/06 09:13:34;;;;;;;19.20;8.43;;;;;;;15.89;32.54;100556.25;4971137;28;20770;-61
2022/03/06 09:16:01;;;;;;;17.42;8.77;;;;;;;16.19;32.43;100550.34;4971444;28;20458;-61
2022/03/06 09:18:26;;;;;;;14.43;7.75;;;;;;;16.07;32.96;100560.75;4971156;28;20035;-61
2022/03/06 09:20:51;;;;;;;16.42;7.38;;;;;;;16.59;32.57;100563.63;4970312;28;20041;-61
2022/03/06 09:23:17;;;;;;;15.05;7.47;;;;;;;16.56;31.43;100554.84;4971360;28;20126;-61
2022/03/06 09:25:43;;;;;;;15.30;7.47;;;;;;;16.32;31.59;100559.56;4969771;28;20478;-61
2022/03/06 09:28:09;;;;;;;16.17;7.57;;;;;;;16.27;30.79;100560.72;4971043;28;20495;-61
2022/03/06 09:30:35;;;;;;;14.48;7.65;;;;;;;16.23;32.60;100557.28;4970260;28;20027;-61
2022/03/06 09:33:01;;;;;;;17.48;9.27;;;;;;;15.63;32.46;100555.59;4970557;28;20101;-61
2022/03/06 09:35:26;;;;;;;13.27;7.05;;;;;;;15.96;32.61;100557.72;4970706;28;20434;-61
2022/03/06 09:37:52;;;;;;;16.85;8.13;;;;;;;15.79;33.14;100551.31;4970408;28;20105;-61
2022/03/06 09:40:18;;;;;;;15.77;7.70;;;;;;;16.04;32.75;100545.69;4969748;28;20451;-61
2022/03/06 09:42:44;;;;;;;16.15;7.38;;;;;;;16.00;31.17;100554.81;4970787;28;20039;-61
2022/03/06 09:45:11;;;;;;;16.95;7.28;;;;;;;16.22;33.20;100552.00;4970969;28;20038;-61
2022/03/06 09:47:38;;;;;;;17.48;8.20;;;;;;;16.71;32.37;100549.63;4970748;28;20033;-61
2022/03/06 09:50:05;;;;;;;16.35;8.13;;;;;;;16.37;31.36;100552.16;4969731;28;20034;-61
2022/03/06 09:52:30;;;;;;;17.13;8.68;;;;;;;16.55;31.76;100554.00;4969136;28;20571;-61
2022/03/06 09:54:56;;;;;;;15.23;8.18;;;;;;;16.40;32.32;100551.13;4970193;28;20031;-61
2022/03/06 09:57:21;;;;;;;16.00;7.70;;;;;;;16.79;32.50;100549.22;4970951;28;20038;-61
2022/03/06 09:59:47;;;;;;;16.45;8.18;;;;;;;17.12;32.35;100546.69;4970210;28;20041;-61
2022/03/06 10:02:13;;;;;;;16.00;7.75;;;;;;;17.13;31.58;100544.75;4970827;28;20035;-61
2022/03/06 10:04:39;;;;;;;16.35;7.93;;;;;;;17.64;31.62;100535.88;4971070;28;20023;-61
2022/03/06 10:07:12;;;;;;;14.90;7.22;;;;;;;17.37;30.29;100539.97;4970261;28;20061;-61
2022/03/06 10:09:45;;;;;;;16.17;8.57;;;;;;;17.04;31.66;100537.19;4970267;28;20045;-61
2022/03/06 10:12:20;;;;;;;15.75;7.93;;;;;;;17.42;31.02;100540.59;4970805;28;20081;-61
2022/03/06 10:14:47;;;;;;;14.63;8.00;;;;;;;17.64;31.62;100540.38;4970424;28;20498;-61
2022/03/06 10:17:23;;;;;;;13.10;7.55;;;;;;;17.98;29.89;100543.84;4969550;28;20027;-61
2022/03/06 10:20:12;;;;;;;14.25;7.15;;;;;;;18.02;29.84;100542.72;4968570;28;20453;-61
2022/03/06 10:22:41;;;;;;;12.68;7.53;;;;;;;17.36;30.12;100538.22;4970622;28;20023;-61
2022/03/06 10:25:16;;;;;;;13.55;7.35;;;;;;;16.88;30.85;100535.34;4970775;28;20524;-61
2022/03/06 10:27:59;;;;;;;15.25;7.78;;;;;;;17.39;31.01;100532.69;4970873;28;20444;-61
2022/03/06 10:30:32;;;;;;;12.48;6.68;;;;;;;17.66;30.88;100525.03;4971282;28;20023;-61
2022/03/06 10:33:00;;;;;;;16.77;7.43;;;;;;;18.00;30.97;100524.94;4971001;28;20031;-61
2022/03/06 10:35:39;;;;;;;16.10;7.43;;;;;;;18.31;29.44;100535.75;4970418;28;20791;-61
2022/03/06 10:38:21;;;;;;;36.45;8.68;;;;;;;18.25;28.26;100536.94;4970506;28;20022;-61
2022/03/06 10:40:48;;;;;;;15.45;7.78;;;;;;;17.34;28.37;100529.38;4969275;28;20435;-61
2022/03/06 10:43:22;;;;;;;19.02;9.43;;;;;;;16.21;29.90;100543.06;4970497;28;20031;-60
2022/03/06 10:45:49;;;;;;;14.93;8.00;;;;;;;16.14;30.33;100546.13;4971201;28;20129;-60
2022/03/06 10:48:15;;;;;;;15.52;7.60;;;;;;;16.68;30.34;100538.16;4972628;28;20077;-60
2022/03/06 10:50:41;;;;;;;16.58;7.72;;;;;;;16.82;29.96;100539.19;4973242;28;20030;-60
2022/03/06 10:53:23;;;;;;;16.98;8.73;;;;;;;16.56;30.64;100549.47;4973734;28;20035;-60
2022/03/06 10:55:50;;;;;;;16.98;7.65;;;;;;;15.87;31.97;100542.03;4973794;28;20429;-60
2022/03/06 10:58:18;;;;;;;14.90;7.43;;;;;;;16.00;31.31;100548.56;4973607;28;20109;-60
2022/03/06 11:00:44;;;;;;;15.05;7.75;;;;;;;15.90;31.29;100536.53;4972883;28;20525;-60
2022/03/06 11:03:13;;;;;;;15.35;7.68;;;;;;;16.92;31.40;100537.78;4973992;28;20069;-60
2022/03/06 11:05:46;;;;;;;13.48;6.93;;;;;;;16.37;30.99;100546.78;4973090;28;20162;-60
2022/03/06 11:08:13;;;;;;;13.70;7.40;;;;;;;15.82;32.06;100543.13;4973311;28;20387;-60
2022/03/06 11:10:40;;;;;;;12.38;7.15;;;;;;;16.48;30.68;100540.94;4973526;28;20066;-60
2022/03/06 11:13:07;;;;;;;13.90;7.45;;;;;;;16.58;30.96;100531.47;4973263;28;20035;-60
2022/03/06 11:15:33;;;;;;;14.13;7.97;;;;;;;15.62;30.78;100527.06;4973387;28;20561;-60
2022/03/06 11:18:01;;;;;;;14.30;7.72;;;;;;;15.02;32.02;100534.19;4972943;28;20043;-60